createdAt,value
2023-05-06T00:03:25.950Z,98272.53
2023-05-06T00:07:09.937Z,98269.75
2023-05-06T00:10:53.139Z,98265.36
2023-05-06T00:14:18.505Z,98263.42
2023-05-06T00:18:14.639Z,98253.35
2023-05-06T00:21:40.975Z,98245.27
2023-05-06T00:25:35.772Z,98240.50
2023-05-06T00:29:00.161Z,98242.42
2023-05-06T00:32:37.887Z,98241.60
2023-05-06T00:36:15.530Z,98231.27
2023-05-06T00:39:53.279Z,98224.49
2023-05-06T00:43:30.953Z,98222.20
2023-05-06T00:47:08.979Z,98224.50
2023-05-06T00:50:46.330Z,98223.19
2023-05-06T00:54:43.046Z,98223.80
2023-05-06T00:58:26.301Z,98228.32
2023-05-06T01:01:52.282Z,98227.30
2023-05-06T01:05:54.478Z,98220.05
2023-05-06T01:09:46.000Z,98216.23
2023-05-06T01:14:05.982Z,98218.20
2023-05-06T01:17:52.754Z,98213.79
2023-05-06T01:21:19.387Z,98219.17
2023-05-06T01:25:21.757Z,98219.48
2023-05-06T01:28:46.343Z,98219.95
2023-05-06T01:32:55.692Z,98218.78
2023-05-06T01:36:57.937Z,98218.75
2023-05-06T01:40:43.508Z,98212.52
2023-05-06T01:44:09.100Z,98204.83
2023-05-06T01:47:47.334Z,98199.41
2023-05-06T01:51:23.858Z,98198.91
2023-05-06T01:55:22.296Z,98196.80
2023-05-06T01:58:46.884Z,98189.55
2023-05-06T02:02:25.243Z,98191.83
2023-05-06T02:06:02.428Z,98188.04
2023-05-06T02:09:39.905Z,98185.23
2023-05-06T02:13:22.030Z,98182.46
2023-05-06T02:17:14.346Z,98179.91
2023-05-06T02:20:42.006Z,98179.82
2023-05-06T02:24:36.350Z,98180.62
2023-05-06T02:28:01.098Z,98182.89
2023-05-06T02:31:38.770Z,98179.31
2023-05-06T02:35:35.105Z,98171.61
2023-05-06T02:39:21.686Z,98171.61
2023-05-06T02:42:46.584Z,98170.61
2023-05-06T02:46:42.958Z,98166.48
2023-05-06T02:50:08.291Z,98163.61
2023-05-06T02:53:45.383Z,98161.15
2023-05-06T02:57:42.002Z,98160.72
2023-05-06T03:01:09.137Z,98161.48
2023-05-06T03:05:04.002Z,98169.32
2023-05-06T03:08:31.637Z,98171.09
2023-05-06T03:12:26.159Z,98169.48
2023-05-06T03:16:14.224Z,98174.51
2023-05-06T03:19:43.185Z,98168.10
2023-05-06T03:23:21.407Z,98161.02
2023-05-06T03:26:58.605Z,98158.40
2023-05-06T03:30:53.775Z,98156.89
2023-05-06T03:34:37.326Z,98150.88
2023-05-06T03:38:02.240Z,98153.14
2023-05-06T03:41:39.823Z,98154.77
2023-05-06T03:45:19.414Z,98157.80
2023-05-06T03:48:55.623Z,98167.09
2023-05-06T03:52:33.093Z,98171.45
2023-05-06T03:56:10.341Z,98175.37
2023-05-06T04:00:08.494Z,98176.72
2023-05-06T04:03:40.653Z,98170.30
2023-05-06T04:07:18.201Z,98168.00
2023-05-06T04:11:15.838Z,98167.00
2023-05-06T04:14:42.940Z,98169.09
2023-05-06T04:18:19.324Z,98171.87
2023-05-06T04:21:55.838Z,98176.66
2023-05-06T04:25:54.222Z,98175.54
2023-05-06T04:29:42.367Z,98171.72
2023-05-06T04:33:09.442Z,98174.89
2023-05-06T04:37:06.367Z,98173.54
2023-05-06T04:41:11.355Z,98169.62
2023-05-06T04:44:55.272Z,98169.34
2023-05-06T04:48:26.254Z,98174.23
2023-05-06T04:52:04.212Z,98169.42
2023-05-06T04:55:41.288Z,98166.38
2023-05-06T04:59:23.053Z,98157.04
2023-05-06T05:03:15.869Z,98154.60
2023-05-06T05:06:41.365Z,98150.69
2023-05-06T05:10:42.809Z,98150.20
2023-05-06T05:14:28.003Z,98145.83
2023-05-06T05:17:52.853Z,98153.55
2023-05-06T05:21:30.617Z,98153.73
2023-05-06T05:25:27.130Z,98152.67
2023-05-06T05:29:12.034Z,98149.55
2023-05-06T05:32:41.149Z,98146.37
2023-05-06T05:36:38.328Z,98139.63
2023-05-06T05:40:07.065Z,98135.45
2023-05-06T05:44:02.932Z,98129.70
2023-05-06T05:47:46.853Z,98122.02
2023-05-06T05:51:31.158Z,98110.92
2023-05-06T05:54:56.568Z,98098.48
2023-05-06T05:58:36.958Z,98099.65
2023-05-06T06:02:31.127Z,98103.20
2023-05-06T06:05:55.929Z,98092.09
2023-05-06T06:09:53.563Z,98088.77
2023-05-06T06:13:23.464Z,98085.27
2023-05-06T06:17:16.144Z,98081.88
2023-05-06T06:20:43.476Z,98083.09
2023-05-06T06:24:40.438Z,98082.09
2023-05-06T06:28:23.837Z,98088.65
2023-05-06T06:31:49.184Z,98090.41
2023-05-06T06:35:45.405Z,98088.30
2023-05-06T06:39:33.536Z,98086.35
2023-05-06T06:43:19.313Z,98092.95
2023-05-06T06:46:55.857Z,98094.87
2023-05-06T06:50:55.621Z,98102.30
2023-05-06T06:54:38.788Z,98100.56
2023-05-06T06:58:22.870Z,98092.86
2023-05-06T07:01:48.772Z,98090.83
2023-05-06T07:05:26.900Z,98088.05
2023-05-06T07:09:21.985Z,98084.30
2023-05-06T07:13:11.556Z,98079.73
2023-05-06T07:16:57.369Z,98078.79
2023-05-06T07:20:21.871Z,98082.96
2023-05-06T07:24:18.506Z,98085.65
2023-05-06T07:27:43.153Z,98082.81
2023-05-06T07:31:23.069Z,98076.98
2023-05-06T07:35:17.068Z,98071.60
2023-05-06T07:38:41.692Z,98064.09
2023-05-06T07:42:37.832Z,98064.87
2023-05-06T07:46:21.303Z,98061.76
2023-05-06T07:50:06.237Z,98063.51
2023-05-06T07:53:49.812Z,98056.52
2023-05-06T07:57:21.286Z,98051.23
2023-05-06T08:01:15.639Z,98043.85
2023-05-06T08:04:59.859Z,98041.49
2023-05-06T08:08:28.177Z,98038.97
2023-05-06T08:12:20.939Z,98044.47
2023-05-06T08:15:49.639Z,98039.59
2023-05-06T08:19:23.249Z,98040.81
2023-05-06T08:23:02.437Z,98031.39
2023-05-06T08:26:39.008Z,98035.02
2023-05-06T08:30:36.968Z,98035.70
2023-05-06T08:34:02.984Z,98037.58
2023-05-06T08:37:43.615Z,98037.13
2023-05-06T08:41:38.997Z,98037.58
2023-05-06T08:45:22.814Z,98031.79
2023-05-06T08:48:47.044Z,98028.31
2023-05-06T08:52:24.709Z,98028.73
2023-05-06T08:56:27.153Z,98029.63
2023-05-06T09:00:14.397Z,98025.94
2023-05-06T09:03:39.700Z,98018.48
2023-05-06T09:07:36.058Z,98013.19
2023-05-06T09:11:01.096Z,98014.69
2023-05-06T09:14:57.058Z,98007.71
2023-05-06T09:18:22.801Z,98006.41
2023-05-06T09:22:22.958Z,98005.01
2023-05-06T09:26:08.635Z,98002.30
2023-05-06T09:30:13.643Z,97988.70
2023-05-06T09:34:00.169Z,97985.00
2023-05-06T09:37:45.496Z,97983.60
2023-05-06T09:41:11.263Z,97979.43
2023-05-06T09:45:10.026Z,97968.88
2023-05-06T09:48:56.586Z,97966.38
2023-05-06T09:52:47.406Z,97969.47
2023-05-06T09:56:15.613Z,97965.32
2023-05-06T09:59:52.289Z,97965.23
2023-05-06T10:03:48.352Z,97968.28
2023-05-06T10:07:33.485Z,97974.66
2023-05-06T10:11:18.421Z,97988.48
2023-05-06T10:15:04.464Z,97989.79
2023-05-06T10:18:31.075Z,97998.39
2023-05-06T10:22:50.244Z,98003.23
2023-05-06T10:26:37.730Z,98022.34
2023-05-06T10:30:21.754Z,98038.54
2023-05-06T10:34:09.166Z,98046.50
2023-05-06T10:37:55.862Z,98042.83
2023-05-06T10:41:39.616Z,98027.88
2023-05-06T10:45:06.445Z,98018.23
2023-05-06T10:49:04.727Z,98020.29
2023-05-06T10:52:45.896Z,98017.02
2023-05-06T10:56:12.440Z,98009.58
2023-05-06T10:59:49.904Z,98006.63
2023-05-06T11:03:27.863Z,97996.80
2023-05-06T11:07:10.613Z,97976.58
2023-05-06T11:10:43.029Z,97963.42
2023-05-06T11:14:39.802Z,97959.45
2023-05-06T11:18:36.407Z,97971.61
2023-05-06T11:22:05.354Z,97967.80
2023-05-06T11:25:43.026Z,97962.99
2023-05-06T11:29:19.412Z,97961.02
2023-05-06T11:33:06.158Z,97961.19
2023-05-06T11:36:34.566Z,97967.59
2023-05-06T11:40:31.213Z,97968.85
2023-05-06T11:43:56.440Z,97972.00
2023-05-06T11:47:54.558Z,97957.99
2023-05-06T11:51:38.205Z,97950.50
2023-05-06T11:55:07.812Z,97945.76
2023-05-06T11:58:59.386Z,97941.98
2023-05-06T12:02:44.509Z,97936.04
2023-05-06T12:06:36.662Z,97933.54
2023-05-06T12:10:30.216Z,97934.81
2023-05-06T12:14:14.348Z,97930.20
2023-05-06T12:17:59.183Z,97936.89
2023-05-06T12:21:26.076Z,97942.25
2023-05-06T12:25:21.503Z,97943.87
2023-05-06T12:29:05.118Z,97945.13
2023-05-06T12:32:58.697Z,97945.56
2023-05-06T12:36:46.841Z,97944.50
2023-05-06T12:40:20.969Z,97944.05
2023-05-06T12:44:34.248Z,97948.60
2023-05-06T12:48:05.528Z,97950.05
2023-05-06T12:51:37.131Z,97947.73
2023-05-06T12:55:36.391Z,97946.20
2023-05-06T12:59:19.651Z,97945.16
2023-05-06T13:02:44.219Z,97940.27
2023-05-06T13:06:40.581Z,97938.98
2023-05-06T13:10:06.416Z,97945.84
2023-05-06T13:13:45.252Z,97953.48
2023-05-06T13:17:20.626Z,97957.48
2023-05-06T13:21:00.296Z,97956.54
2023-05-06T13:24:36.475Z,97956.45
2023-05-06T13:28:37.162Z,97965.08
2023-05-06T13:32:21.720Z,97971.32
2023-05-06T13:35:47.489Z,97969.50
2023-05-06T13:39:43.655Z,97965.73
2023-05-06T13:43:12.121Z,97966.38
2023-05-06T13:46:48.922Z,97966.30
2023-05-06T13:50:26.654Z,97965.85
2023-05-06T13:54:23.808Z,97961.29
2023-05-06T13:58:09.040Z,97955.25
2023-05-06T14:01:55.368Z,97951.37
2023-05-06T14:05:40.160Z,97954.45
2023-05-06T14:09:05.022Z,97946.30
2023-05-06T14:12:42.452Z,97935.12
2023-05-06T14:16:39.135Z,97930.67
2023-05-06T14:20:22.301Z,97928.84
2023-05-06T14:24:08.139Z,97930.09
2023-05-06T14:27:33.441Z,97928.59
2023-05-06T14:31:33.058Z,97930.70
2023-05-06T14:35:03.655Z,97933.55
2023-05-06T14:38:56.140Z,97935.10
2023-05-06T14:42:45.570Z,97938.85
2023-05-06T14:46:32.732Z,97942.09
2023-05-06T14:50:16.401Z,97936.57
2023-05-06T14:53:41.327Z,97932.63
2023-05-06T14:57:20.396Z,97936.88
2023-05-06T15:00:57.022Z,97941.23
2023-05-06T15:04:53.018Z,97938.95
2023-05-06T15:08:17.993Z,97942.35
2023-05-06T15:11:57.849Z,97944.20
2023-05-06T15:15:53.896Z,97939.37
2023-05-06T15:19:40.734Z,97939.17
2023-05-06T15:23:05.841Z,97940.83
2023-05-06T15:26:43.178Z,97945.89
2023-05-06T15:30:39.329Z,97948.64
2023-05-06T15:34:23.918Z,97947.87
2023-05-06T15:37:50.731Z,97944.12
2023-05-06T15:41:46.059Z,97953.31
2023-05-06T15:45:12.226Z,97953.92
2023-05-06T15:52:56.113Z,97954.77
2023-05-06T15:56:27.004Z,97959.59
2023-05-06T16:00:19.316Z,97955.80
2023-05-06T16:04:03.517Z,97954.03
2023-05-06T16:07:29.902Z,97949.95
2023-05-06T16:11:26.923Z,97940.01
2023-05-06T16:14:52.514Z,97935.46
2023-05-06T16:18:29.368Z,97946.12
2023-05-06T16:22:25.973Z,97946.56
2023-05-06T16:26:10.860Z,97953.84
2023-05-06T16:29:55.318Z,97956.99
2023-05-06T16:33:20.308Z,97963.38
2023-05-06T16:37:19.519Z,97957.64
2023-05-06T16:40:54.718Z,97958.38
2023-05-06T16:44:22.036Z,97964.05
2023-05-06T16:48:18.574Z,97965.97
2023-05-06T16:52:05.857Z,97965.67
2023-05-06T16:55:55.272Z,97968.33
2023-05-06T16:59:22.242Z,97969.73
2023-05-06T17:03:17.021Z,97965.92
2023-05-06T17:06:41.641Z,97967.77
2023-05-06T17:10:19.468Z,97966.20
2023-05-06T17:13:56.818Z,97960.66
2023-05-06T17:17:34.834Z,97965.11
2023-05-06T17:21:12.411Z,97959.35
2023-05-06T17:24:51.157Z,97960.95
2023-05-06T17:28:27.722Z,97960.84
2023-05-06T17:32:25.840Z,97962.08
2023-05-06T17:35:55.187Z,97969.55
2023-05-06T17:39:51.781Z,97970.17
2023-05-06T17:43:19.200Z,97966.64
2023-05-06T17:46:58.111Z,97967.28
2023-05-06T17:50:53.050Z,97973.75
2023-05-06T17:54:19.856Z,97976.11
2023-05-06T17:57:58.150Z,97978.45
2023-05-06T18:01:35.291Z,97975.39
2023-05-06T18:05:13.761Z,97977.73
2023-05-06T18:09:09.777Z,97981.36
2023-05-06T18:12:37.174Z,97987.04
2023-05-06T18:16:31.901Z,97991.88
2023-05-06T18:20:15.839Z,97997.67
2023-05-06T18:23:40.245Z,98001.35
2023-05-06T18:27:39.243Z,98002.90
2023-05-06T18:31:12.433Z,98006.14
2023-05-06T18:35:10.254Z,98009.96
2023-05-06T18:38:54.065Z,98015.88
2023-05-06T18:42:37.274Z,98020.29
2023-05-06T18:46:02.192Z,98018.45
2023-05-06T18:49:39.518Z,98018.83
2023-05-06T18:53:36.271Z,98018.06
2023-05-06T18:57:02.454Z,98031.56
2023-05-06T19:00:38.157Z,98039.78
2023-05-06T19:04:35.163Z,98044.11
2023-05-06T19:08:01.609Z,98051.08
2023-05-06T19:11:39.198Z,98055.07
2023-05-06T19:15:19.181Z,98057.70
2023-05-06T19:19:13.585Z,98061.83
2023-05-06T19:22:57.224Z,98064.20
2023-05-06T19:26:40.746Z,98063.27
2023-05-06T19:30:28.160Z,98062.69
2023-05-06T19:33:58.094Z,98059.68
2023-05-06T19:37:35.449Z,98060.26
2023-05-06T19:41:11.119Z,98059.69
2023-05-06T19:44:49.730Z,98062.79
2023-05-06T19:48:45.660Z,98061.75
2023-05-06T19:52:10.222Z,98060.86
2023-05-06T19:56:08.741Z,98064.70
2023-05-06T19:59:52.797Z,98066.31
2023-05-06T20:03:37.876Z,98071.76
2023-05-06T20:07:23.288Z,98077.16
2023-05-06T20:11:06.527Z,98077.39
2023-05-06T20:14:49.876Z,98078.84
2023-05-06T20:18:14.685Z,98078.02
2023-05-06T20:22:13.325Z,98083.92
2023-05-06T20:25:40.118Z,98093.13
2023-05-06T20:29:36.246Z,98094.71
2023-05-06T20:33:19.430Z,98095.32
2023-05-06T20:36:46.288Z,98095.44
2023-05-06T20:40:22.014Z,98098.52
2023-05-06T20:47:39.092Z,98104.69
2023-05-06T20:51:17.059Z,98105.52
2023-05-06T20:55:13.989Z,98113.27
2023-05-06T20:58:57.145Z,98118.16
2023-05-06T21:02:25.823Z,98131.14
2023-05-06T21:05:59.322Z,98133.19
2023-05-06T21:09:55.830Z,98134.98
2023-05-06T21:13:22.075Z,98134.39
2023-05-06T21:17:08.362Z,98136.54
2023-05-06T21:20:35.990Z,98137.42
2023-05-06T21:24:13.685Z,98136.46
2023-05-06T21:28:10.293Z,98141.35
2023-05-06T21:31:35.225Z,98145.36
2023-05-06T21:35:31.736Z,98151.89
2023-05-06T21:39:07.962Z,98154.40
2023-05-06T21:42:54.359Z,98157.06
2023-05-06T21:46:38.170Z,98163.34
2023-05-06T21:50:21.930Z,98162.70
2023-05-06T21:54:07.378Z,98168.10
2023-05-06T21:57:32.941Z,98163.89
2023-05-06T22:01:14.120Z,98165.08
2023-05-06T22:04:47.718Z,98163.38
2023-05-06T22:08:25.532Z,98168.77
2023-05-06T22:12:06.809Z,98165.14
2023-05-06T22:15:41.906Z,98162.92
2023-05-06T22:19:37.764Z,98161.85
2023-05-06T22:23:05.477Z,98162.52
2023-05-06T22:26:42.111Z,98159.44
2023-05-06T22:30:39.220Z,98157.58
2023-05-06T22:34:04.757Z,98160.17
2023-05-06T22:37:43.394Z,98166.35
2023-05-06T22:41:19.829Z,98169.95
2023-05-06T22:44:57.884Z,98162.24
2023-05-06T22:48:35.494Z,98164.07
2023-05-06T22:52:13.445Z,98163.09
2023-05-06T22:56:09.763Z,98162.86
2023-05-06T22:59:34.197Z,98162.47
2023-05-06T23:03:30.842Z,98163.88
2023-05-06T23:06:57.732Z,98171.15
2023-05-06T23:10:52.508Z,98169.60
2023-05-06T23:14:18.459Z,98170.56
2023-05-06T23:18:15.823Z,98175.42
2023-05-06T23:21:43.153Z,98181.25
2023-05-06T23:25:39.322Z,98184.67
2023-05-06T23:29:04.885Z,98189.18
2023-05-06T23:32:42.441Z,98190.66
2023-05-06T23:36:20.061Z,98188.40
2023-05-06T23:39:58.783Z,98188.77
2023-05-06T23:43:54.092Z,98188.11
2023-05-06T23:47:37.647Z,98191.70
2023-05-06T23:51:21.308Z,98189.37
2023-05-06T23:54:48.591Z,98188.05
2023-05-06T23:58:42.221Z,98186.83
